createdAt,value
2022-09-25T00:00:14.846Z,12.80
2022-09-25T00:05:17.592Z,12.80
2022-09-25T00:10:20.366Z,12.70
2022-09-25T00:15:23.172Z,12.70
2022-09-25T00:20:26.125Z,12.70
2022-09-25T00:25:28.785Z,12.70
2022-09-25T00:30:31.415Z,12.60
2022-09-25T00:35:34.112Z,12.60
2022-09-25T00:40:36.814Z,12.50
2022-09-25T00:45:42.019Z,12.50
2022-09-25T00:50:56.607Z,12.40
2022-09-25T00:56:01.554Z,12.40
2022-09-25T01:01:04.477Z,12.30
2022-09-25T01:06:07.322Z,12.30
2022-09-25T01:11:10.477Z,12.30
2022-09-25T01:16:17.220Z,12.30
2022-09-25T01:21:31.794Z,12.30
2022-09-25T01:26:55.767Z,12.30
2022-09-25T01:32:04.411Z,12.30
2022-09-25T01:37:14.466Z,12.30
2022-09-25T01:42:21.570Z,12.40
2022-09-25T01:47:28.108Z,12.40
2022-09-25T01:52:35.805Z,12.40
2022-09-25T01:57:42.518Z,12.40
2022-09-25T02:02:56.632Z,12.40
2022-09-25T02:08:03.786Z,12.40
2022-09-25T02:13:13.317Z,12.40
2022-09-25T02:18:37.444Z,12.40
2022-09-25T02:23:52.544Z,12.30
2022-09-25T02:28:56.175Z,12.20
2022-09-25T02:33:58.809Z,12.20
2022-09-25T02:39:03.338Z,12.10
2022-09-25T02:44:14.334Z,12.10
2022-09-25T02:49:44.219Z,12.00
2022-09-25T02:55:02.978Z,12.10
2022-09-25T03:00:07.733Z,12.00
2022-09-25T03:05:12.528Z,11.90
2022-09-25T03:10:16.442Z,11.80
2022-09-25T03:15:20.074Z,11.80
2022-09-25T03:20:22.667Z,11.70
2022-09-25T03:25:25.384Z,11.70
2022-09-25T03:30:29.423Z,11.50
2022-09-25T03:35:32.181Z,11.50
2022-09-25T03:40:36.610Z,11.40
2022-09-25T03:45:39.328Z,11.40
2022-09-25T03:50:42.155Z,11.40
2022-09-25T03:55:48.758Z,11.30
2022-09-25T04:00:51.455Z,11.30
2022-09-25T04:05:59.042Z,11.20
2022-09-25T04:11:02.269Z,11.20
2022-09-25T04:16:06.905Z,11.10
2022-09-25T04:21:11.230Z,11.10
2022-09-25T04:26:13.902Z,11.10
2022-09-25T04:31:16.532Z,11.10
2022-09-25T04:36:19.316Z,11.10
2022-09-25T04:41:22.314Z,11.20
2022-09-25T04:46:24.928Z,11.30
2022-09-25T04:51:27.537Z,11.40
2022-09-25T04:56:30.065Z,11.40
2022-09-25T05:01:32.896Z,11.40
2022-09-25T05:06:35.648Z,11.50
2022-09-25T05:11:38.232Z,11.60
2022-09-25T05:16:40.993Z,11.60
2022-09-25T05:21:43.796Z,11.70
2022-09-25T05:26:48.304Z,11.70
2022-09-25T05:31:51.019Z,11.80
2022-09-25T05:36:53.832Z,11.90
2022-09-25T05:41:57.448Z,12.00
2022-09-25T05:47:00.098Z,12.10
2022-09-25T05:52:02.770Z,12.30
2022-09-25T05:57:05.520Z,12.40
2022-09-25T06:02:13.338Z,12.50
2022-09-25T06:07:15.956Z,12.70
2022-09-25T06:12:18.596Z,12.70
2022-09-25T06:17:21.319Z,12.80
2022-09-25T06:22:23.933Z,12.90
2022-09-25T06:27:27.598Z,13.00
2022-09-25T06:32:30.283Z,13.20
2022-09-25T06:37:33.093Z,13.30
2022-09-25T06:42:35.659Z,13.50
2022-09-25T06:47:38.410Z,13.60
2022-09-25T06:52:44.739Z,13.80
2022-09-25T06:57:47.333Z,13.90
2022-09-25T07:03:08.734Z,14.10
2022-09-25T07:08:14.013Z,14.20
2022-09-25T07:13:18.565Z,14.30
2022-09-25T07:18:22.407Z,14.50
2022-09-25T07:23:24.978Z,14.60
2022-09-25T07:28:27.657Z,14.70
2022-09-25T07:33:30.290Z,14.80
2022-09-25T07:38:34.450Z,14.90
2022-09-25T07:43:40.575Z,15.00
2022-09-25T07:48:43.144Z,15.20
2022-09-25T07:53:45.733Z,15.30
2022-09-25T07:58:48.441Z,15.40
2022-09-25T08:03:51.239Z,15.40
2022-09-25T08:08:53.883Z,15.60
2022-09-25T08:13:56.500Z,15.70
2022-09-25T08:18:59.122Z,15.80
2022-09-25T08:24:01.998Z,15.90
2022-09-25T08:29:05.019Z,15.90
2022-09-25T08:34:36.264Z,15.90
2022-09-25T08:39:33.020Z,16.00
2022-09-25T08:45:09.092Z,16.20
2022-09-25T08:50:19.678Z,16.30
2022-09-25T08:55:50.229Z,16.40
2022-09-25T09:00:54.653Z,16.60
2022-09-25T09:06:04.780Z,16.80
2022-09-25T09:11:17.282Z,17.00
2022-09-25T09:16:23.134Z,17.10
2022-09-25T09:21:33.682Z,17.20
2022-09-25T09:26:43.544Z,17.30
2022-09-25T09:32:01.188Z,17.40
2022-09-25T09:37:15.993Z,17.40
2022-09-25T09:42:36.853Z,17.50
2022-09-25T09:48:11.962Z,17.50
2022-09-25T09:53:42.412Z,17.40
2022-09-25T09:59:00.794Z,17.40
2022-09-25T10:04:22.705Z,17.40
2022-09-25T10:09:27.268Z,17.40
2022-09-25T10:14:40.124Z,17.40
2022-09-25T10:19:49.063Z,17.50
2022-09-25T10:24:55.441Z,17.60
2022-09-25T10:30:01.502Z,17.70
2022-09-25T10:35:06.220Z,17.70
2022-09-25T10:40:32.139Z,17.80
2022-09-25T10:45:36.402Z,17.80
2022-09-25T10:50:39.128Z,17.70
2022-09-25T10:55:51.183Z,17.70
2022-09-25T11:00:58.397Z,17.60
2022-09-25T11:06:20.887Z,17.50
2022-09-25T11:11:26.962Z,17.50
2022-09-25T11:16:46.464Z,17.40
2022-09-25T11:22:11.875Z,17.40
2022-09-25T11:27:22.611Z,17.30
2022-09-25T11:32:59.071Z,17.20
2022-09-25T11:38:40.418Z,17.10
2022-09-25T11:44:20.123Z,16.90
2022-09-25T11:49:30.445Z,16.80
2022-09-25T11:54:39.038Z,16.60
2022-09-25T11:59:52.263Z,16.60
2022-09-25T12:05:23.886Z,16.50
2022-09-25T12:10:36.282Z,16.40
2022-09-25T12:15:48.124Z,16.30
2022-09-25T12:20:58.141Z,16.20
2022-09-25T12:26:00.894Z,16.00
2022-09-25T12:31:10.790Z,16.00
2022-09-25T12:36:24.354Z,15.90
2022-09-25T12:41:46.944Z,15.90
2022-09-25T12:46:50.941Z,15.70
2022-09-25T12:51:58.604Z,15.70
2022-09-25T12:57:39.429Z,15.60
2022-09-25T13:03:19.434Z,15.60
2022-09-25T13:09:02.392Z,15.50
2022-09-25T13:14:11.309Z,15.50
2022-09-25T13:19:33.149Z,15.50
2022-09-25T13:24:58.122Z,15.40
2022-09-25T13:30:01.814Z,15.40
2022-09-25T13:35:07.191Z,15.40
2022-09-25T13:40:42.814Z,15.40
2022-09-25T13:45:45.506Z,15.40
2022-09-25T13:50:51.516Z,15.40
2022-09-25T13:55:57.445Z,15.30
2022-09-25T14:01:01.780Z,15.40
2022-09-25T14:06:07.646Z,15.40
2022-09-25T14:11:13.579Z,15.30
2022-09-25T14:16:40.942Z,15.30
2022-09-25T14:21:44.465Z,15.30
2022-09-25T14:26:48.494Z,15.30
2022-09-25T14:32:09.417Z,15.40
2022-09-25T14:37:52.881Z,15.30
2022-09-25T14:43:13.317Z,15.30
2022-09-25T14:48:25.143Z,15.30
2022-09-25T14:53:35.662Z,15.20
2022-09-25T14:58:44.760Z,15.20
2022-09-25T15:03:48.989Z,15.10
2022-09-25T15:08:53.027Z,15.10
2022-09-25T15:14:12.702Z,15.10
2022-09-25T15:19:37.708Z,15.10
2022-09-25T15:24:46.266Z,15.10
2022-09-25T15:29:49.738Z,15.10
2022-09-25T15:35:15.943Z,15.10
2022-09-25T15:40:25.816Z,15.10
2022-09-25T15:45:49.211Z,15.10
2022-09-25T15:50:53.468Z,15.10
2022-09-25T15:56:14.064Z,15.10
2022-09-25T16:01:43.036Z,15.10
2022-09-25T16:06:46.903Z,15.10
2022-09-25T16:11:49.777Z,15.10
2022-09-25T16:16:52.482Z,15.10
2022-09-25T16:21:55.244Z,15.10
2022-09-25T16:27:00.784Z,15.00
2022-09-25T16:32:06.772Z,15.00
2022-09-25T16:37:20.801Z,15.00
2022-09-25T16:42:31.428Z,14.90
2022-09-25T16:47:35.104Z,14.90
2022-09-25T16:52:43.212Z,14.90
2022-09-25T16:57:46.406Z,14.90
2022-09-25T17:02:49.312Z,14.90
2022-09-25T17:07:57.641Z,14.80
2022-09-25T17:13:02.167Z,14.80
2022-09-25T17:18:11.972Z,14.80
2022-09-25T17:23:15.018Z,14.80
2022-09-25T17:28:18.292Z,14.90
2022-09-25T17:33:22.685Z,14.90
2022-09-25T17:38:27.093Z,14.90
2022-09-25T17:43:29.781Z,14.90
2022-09-25T17:48:32.390Z,14.90
2022-09-25T17:53:35.639Z,14.90
2022-09-25T17:58:38.766Z,14.90
2022-09-25T18:03:41.382Z,14.90
2022-09-25T18:08:44.533Z,14.90
2022-09-25T18:13:47.720Z,14.90
2022-09-25T18:19:09.057Z,14.90
2022-09-25T18:24:11.738Z,14.90
2022-09-25T18:29:16.935Z,14.90
2022-09-25T18:34:21.865Z,14.90
2022-09-25T18:39:24.556Z,14.90
2022-09-25T18:44:27.625Z,14.90
2022-09-25T18:49:30.278Z,14.90
2022-09-25T18:54:32.851Z,14.90
2022-09-25T18:59:36.373Z,14.80
2022-09-25T19:04:39.183Z,14.80
2022-09-25T19:09:41.775Z,14.80
2022-09-25T19:14:45.236Z,14.80
2022-09-25T19:19:47.857Z,14.80
2022-09-25T19:24:52.609Z,14.70
2022-09-25T19:29:55.319Z,14.70
2022-09-25T19:34:59.666Z,14.70
2022-09-25T19:40:21.042Z,14.70
2022-09-25T19:45:23.661Z,14.70
2022-09-25T19:50:26.413Z,14.70
2022-09-25T19:55:29.629Z,14.60
2022-09-25T20:00:32.248Z,14.60
2022-09-25T20:05:39.326Z,14.60
2022-09-25T20:10:42.243Z,14.60
2022-09-25T20:15:48.115Z,14.60
2022-09-25T20:20:50.727Z,14.60
2022-09-25T20:25:53.330Z,14.60
2022-09-25T20:30:55.935Z,14.60
2022-09-25T20:36:03.148Z,14.60
2022-09-25T20:41:08.289Z,14.60
2022-09-25T20:46:12.979Z,14.60
2022-09-25T20:51:27.068Z,14.60
2022-09-25T20:56:31.418Z,14.60
2022-09-25T21:01:36.720Z,14.60
2022-09-25T21:06:41.577Z,14.60
2022-09-25T21:11:45.398Z,14.50
2022-09-25T21:16:49.014Z,14.50
2022-09-25T21:21:51.796Z,14.50
2022-09-25T21:26:54.471Z,14.50
2022-09-25T21:31:57.284Z,14.50
2022-09-25T21:37:00.102Z,14.50
2022-09-25T21:42:04.870Z,14.50
2022-09-25T21:47:07.473Z,14.60
2022-09-25T21:52:10.231Z,14.50
2022-09-25T21:57:13.457Z,14.60
2022-09-25T22:02:16.515Z,14.50
2022-09-25T22:07:19.120Z,14.50
2022-09-25T22:12:21.967Z,14.50
2022-09-25T22:17:24.611Z,14.50
2022-09-25T22:22:27.443Z,14.50
2022-09-25T22:27:30.175Z,14.50
2022-09-25T22:32:32.758Z,14.50
2022-09-25T22:37:36.534Z,14.40
2022-09-25T22:42:39.177Z,14.40
2022-09-25T22:47:41.799Z,14.40
2022-09-25T22:52:44.514Z,14.40
2022-09-25T22:57:47.257Z,14.40
2022-09-25T23:02:51.002Z,14.40
2022-09-25T23:07:53.569Z,14.40
2022-09-25T23:12:57.312Z,14.40
2022-09-25T23:17:59.920Z,14.40
2022-09-25T23:23:03.702Z,14.30
2022-09-25T23:28:06.773Z,14.30
2022-09-25T23:33:09.418Z,14.30
2022-09-25T23:38:12.448Z,14.30
2022-09-25T23:43:17.452Z,14.30
2022-09-25T23:48:21.020Z,14.20
2022-09-25T23:53:23.730Z,14.20
2022-09-25T23:58:28.431Z,14.20
